Terminal Aerodrome Forecast
Issued by NWS Tulsa, OK

Home | Current Version | Previous Version | Text Only | Print | Product List | Glossary On
Versions: 1 2 3 4 5 6 7 8 9 10 11 12 13 14 15 16 17 18 19 20 21 22 23 24
000
FTUS44 KTSA 102334
TAFFSM
TAF
KFSM 102334Z 1100/1124 18005KT P6SM VCSH SCT070 SCT250
     FM110300 06003KT P6SM SCT250
     FM111200 06004KT P6SM BKN120 PROB30 1114/1118 3SM TSRA BR
      BKN040CB
     FM111800 09006KT P6SM SCT040 BKN150 PROB30 1118/1124 3SM TSRA
      BR BKN035CB=

USA.gov is the U.S. government's official web portal to all federal, state and local government web resources and services.